createdAt,value
2024-02-27T00:02:08.811Z,16.90
2024-02-27T00:04:36.363Z,16.80
2024-02-27T00:07:03.590Z,17.00
2024-02-27T00:09:30.858Z,15.90
2024-02-27T00:11:57.994Z,15.70
2024-02-27T00:14:25.034Z,14.30
2024-02-27T00:16:52.121Z,15.00
2024-02-27T00:19:19.186Z,13.70
2024-02-27T00:21:46.239Z,14.50
2024-02-27T00:24:13.275Z,15.00
2024-02-27T00:26:40.351Z,14.40
2024-02-27T00:29:07.347Z,14.60
2024-02-27T00:31:34.408Z,14.60
2024-02-27T00:34:01.532Z,13.80
2024-02-27T00:36:28.930Z,14.40
2024-02-27T00:38:56.387Z,14.70
2024-02-27T00:41:23.509Z,14.90
2024-02-27T00:43:50.483Z,14.40
2024-02-27T00:46:17.464Z,13.10
2024-02-27T00:48:44.505Z,11.30
2024-02-27T00:51:11.611Z,12.70
2024-02-27T00:53:38.716Z,11.80
2024-02-27T00:56:06.439Z,10.90
2024-02-27T00:58:33.491Z,11.50
2024-02-27T01:01:01.900Z,11.40
2024-02-27T01:03:28.979Z,10.30
2024-02-27T01:05:56.143Z,10.20
2024-02-27T01:08:23.265Z,10.00
2024-02-27T01:10:50.263Z,11.10
2024-02-27T01:13:17.261Z,10.00
2024-02-27T01:15:44.355Z,12.00
2024-02-27T01:18:11.452Z,11.40
2024-02-27T01:20:38.494Z,12.20
2024-02-27T01:23:05.525Z,11.70
2024-02-27T01:25:32.498Z,12.00
2024-02-27T01:27:59.456Z,10.70
2024-02-27T01:30:26.501Z,10.90
2024-02-27T01:32:53.598Z,10.00
2024-02-27T01:35:20.830Z,9.90
2024-02-27T01:37:48.071Z,9.50
2024-02-27T01:40:15.109Z,9.50
2024-02-27T01:42:46.274Z,10.00
2024-02-27T01:45:20.147Z,10.00
2024-02-27T01:47:47.834Z,9.60
2024-02-27T01:50:16.288Z,10.10
2024-02-27T01:52:43.393Z,10.30
2024-02-27T01:55:10.866Z,9.40
2024-02-27T01:57:38.396Z,9.50
2024-02-27T02:00:11.100Z,9.80
2024-02-27T02:02:44.886Z,10.20
2024-02-27T02:05:12.163Z,10.20
2024-02-27T02:07:41.366Z,9.50
2024-02-27T02:10:11.303Z,8.80
2024-02-27T02:12:38.474Z,9.50
2024-02-27T02:15:06.405Z,9.30
2024-02-27T02:17:35.227Z,10.10
2024-02-27T02:20:06.799Z,9.70
2024-02-27T02:22:34.693Z,8.80
2024-02-27T02:25:02.358Z,9.20
2024-02-27T02:27:30.171Z,9.60
2024-02-27T02:29:57.547Z,9.60
2024-02-27T02:32:24.559Z,8.90
2024-02-27T02:34:51.890Z,9.40
2024-02-27T02:37:18.936Z,10.00
2024-02-27T02:39:46.039Z,10.10
2024-02-27T02:42:13.083Z,10.50
2024-02-27T02:44:40.180Z,9.70
2024-02-27T02:47:07.192Z,9.40
2024-02-27T02:49:35.162Z,10.80
2024-02-27T02:52:03.128Z,9.50
2024-02-27T02:54:30.137Z,9.70
2024-02-27T02:56:57.276Z,9.90
2024-02-27T02:59:26.889Z,9.40
2024-02-27T03:01:53.957Z,10.20
2024-02-27T03:04:21.022Z,9.50
2024-02-27T03:06:48.096Z,8.80
2024-02-27T03:09:15.466Z,8.80
2024-02-27T03:11:42.722Z,9.30
2024-02-27T03:14:09.853Z,8.80
2024-02-27T03:16:36.897Z,9.80
2024-02-27T03:19:04.378Z,8.00
2024-02-27T03:21:33.990Z,8.80
2024-02-27T03:24:01.304Z,9.10
2024-02-27T03:26:28.350Z,8.60
2024-02-27T03:28:55.419Z,8.70
2024-02-27T03:31:22.482Z,8.40
2024-02-27T03:33:49.686Z,9.40
2024-02-27T03:36:17.002Z,9.00
2024-02-27T03:38:44.270Z,8.60
2024-02-27T03:41:14.627Z,8.90
2024-02-27T03:43:42.472Z,8.30
2024-02-27T03:46:10.107Z,9.20
2024-02-27T03:48:37.552Z,8.80
2024-02-27T03:51:04.825Z,8.90
2024-02-27T03:53:32.227Z,8.70
2024-02-27T03:55:59.666Z,8.80
2024-02-27T03:58:26.764Z,8.70
2024-02-27T04:00:54.396Z,9.30
2024-02-27T04:03:21.548Z,8.80
2024-02-27T04:05:48.708Z,9.10
2024-02-27T04:08:15.729Z,8.60
2024-02-27T04:10:42.861Z,7.90
2024-02-27T04:13:09.922Z,8.00
2024-02-27T04:15:37.495Z,7.90
2024-02-27T04:18:04.838Z,8.10
2024-02-27T04:20:32.188Z,8.20
2024-02-27T04:22:59.261Z,7.30
2024-02-27T04:25:26.267Z,7.30
2024-02-27T04:27:53.422Z,7.90
2024-02-27T04:30:20.599Z,7.20
2024-02-27T04:32:47.786Z,7.70
2024-02-27T04:35:15.747Z,7.60
2024-02-27T04:37:42.853Z,6.50
2024-02-27T04:40:10.708Z,6.40
2024-02-27T04:42:37.785Z,7.90
2024-02-27T04:45:05.089Z,6.80
2024-02-27T04:47:32.389Z,6.70
2024-02-27T04:49:59.751Z,6.30
2024-02-27T04:52:26.794Z,6.60
2024-02-27T04:54:53.795Z,6.00
2024-02-27T04:57:21.907Z,6.50
2024-02-27T04:59:48.984Z,6.90
2024-02-27T05:02:16.152Z,8.10
2024-02-27T05:04:43.183Z,8.00
2024-02-27T05:07:10.305Z,8.30
2024-02-27T05:09:37.491Z,12.00
2024-02-27T05:12:04.873Z,11.00
2024-02-27T05:14:31.965Z,12.70
2024-02-27T05:16:59.027Z,9.10
2024-02-27T05:19:26.207Z,9.20
2024-02-27T05:21:53.271Z,8.10
2024-02-27T05:24:20.461Z,7.90
2024-02-27T05:26:47.521Z,8.00
2024-02-27T05:29:15.065Z,7.70
2024-02-27T05:31:42.149Z,8.00
2024-02-27T05:34:09.295Z,7.80
2024-02-27T05:36:36.464Z,7.70
2024-02-27T05:39:03.649Z,7.50
2024-02-27T05:41:31.044Z,6.70
2024-02-27T05:43:58.055Z,8.50
2024-02-27T05:46:25.132Z,9.40
2024-02-27T05:48:52.243Z,9.80
2024-02-27T05:51:21.466Z,9.20
2024-02-27T05:53:48.661Z,8.10
2024-02-27T05:56:15.735Z,7.40
2024-02-27T05:58:42.701Z,8.00
2024-02-27T06:01:09.862Z,7.60
2024-02-27T06:03:37.133Z,7.90
2024-02-27T06:06:04.529Z,8.20
2024-02-27T06:08:31.702Z,7.20
2024-02-27T06:10:58.762Z,7.50
2024-02-27T06:13:27.696Z,7.20
2024-02-27T06:15:56.158Z,7.40
2024-02-27T06:18:23.216Z,7.50
2024-02-27T06:21:08.876Z,8.10
2024-02-27T06:23:37.000Z,7.50
2024-02-27T06:26:04.182Z,7.80
2024-02-27T06:28:32.554Z,7.20
2024-02-27T06:30:59.559Z,8.20
2024-02-27T06:33:26.648Z,9.60
2024-02-27T06:35:53.928Z,7.60
2024-02-27T06:38:21.033Z,8.80
2024-02-27T06:40:48.055Z,8.90
2024-02-27T06:43:15.249Z,8.10
2024-02-27T06:45:42.364Z,8.60
2024-02-27T06:48:11.010Z,9.90
2024-02-27T06:50:38.147Z,12.70
2024-02-27T06:53:05.864Z,12.80
2024-02-27T06:55:32.969Z,11.60
2024-02-27T06:57:59.997Z,9.80
2024-02-27T07:00:27.091Z,10.10
2024-02-27T07:02:54.338Z,9.00
2024-02-27T07:05:23.511Z,8.60
2024-02-27T07:07:54.134Z,9.20
2024-02-27T07:10:21.192Z,9.10
2024-02-27T07:12:48.287Z,10.00
2024-02-27T07:15:15.429Z,13.20
2024-02-27T07:17:42.577Z,19.40
2024-02-27T07:20:10.825Z,29.70
2024-02-27T07:22:37.912Z,14.80
2024-02-27T07:25:05.227Z,12.90
2024-02-27T07:27:32.366Z,11.90
2024-02-27T07:29:59.919Z,10.40
2024-02-27T07:32:27.076Z,12.20
2024-02-27T07:34:54.138Z,12.60
2024-02-27T07:37:21.242Z,12.90
2024-02-27T07:39:49.102Z,13.20
2024-02-27T07:42:16.233Z,14.20
2024-02-27T07:44:43.353Z,12.90
2024-02-27T07:47:10.456Z,12.00
2024-02-27T07:49:37.667Z,14.30
2024-02-27T07:52:04.984Z,14.40
2024-02-27T07:54:32.158Z,15.50
2024-02-27T07:57:11.439Z,13.10
2024-02-27T08:00:01.231Z,12.20
2024-02-27T08:02:38.539Z,10.30
2024-02-27T08:05:05.767Z,11.40
2024-02-27T08:07:35.151Z,11.10
2024-02-27T08:10:02.351Z,10.70
2024-02-27T08:12:29.477Z,10.40
2024-02-27T08:14:56.781Z,10.70
2024-02-27T08:17:24.017Z,12.70
2024-02-27T08:19:51.349Z,11.30
2024-02-27T08:22:18.568Z,14.50
2024-02-27T08:24:45.666Z,14.50
2024-02-27T08:27:12.807Z,15.60
2024-02-27T08:29:40.015Z,16.40
2024-02-27T08:32:07.168Z,13.60
2024-02-27T08:34:34.393Z,15.20
2024-02-27T08:37:01.586Z,12.90
2024-02-27T08:39:28.707Z,13.10
2024-02-27T08:41:56.123Z,10.80
2024-02-27T08:44:23.125Z,13.20
2024-02-27T08:46:51.163Z,13.70
2024-02-27T08:49:18.901Z,11.50
2024-02-27T08:51:46.038Z,11.70
2024-02-27T08:54:13.484Z,11.30
2024-02-27T08:56:41.171Z,11.10
2024-02-27T08:59:08.851Z,13.90
2024-02-27T09:01:36.111Z,11.60
2024-02-27T09:04:03.463Z,9.50
2024-02-27T09:06:30.647Z,10.70
2024-02-27T09:08:57.800Z,10.00
2024-02-27T09:11:24.903Z,9.30
2024-02-27T09:13:52.005Z,9.40
2024-02-27T09:16:19.046Z,9.70
2024-02-27T09:18:46.221Z,10.10
2024-02-27T09:21:13.477Z,8.70
2024-02-27T09:23:40.614Z,8.20
2024-02-27T09:26:07.702Z,8.00
2024-02-27T09:28:34.867Z,7.90
2024-02-27T09:31:04.278Z,8.20
2024-02-27T09:33:32.275Z,9.40
2024-02-27T09:35:59.800Z,9.00
2024-02-27T09:38:27.128Z,8.80
2024-02-27T09:40:55.648Z,10.40
2024-02-27T09:43:25.801Z,10.50
2024-02-27T09:45:53.172Z,10.50
2024-02-27T09:48:22.246Z,10.10
2024-02-27T09:50:52.684Z,9.60
2024-02-27T09:53:21.292Z,10.70
2024-02-27T09:55:48.552Z,12.20
2024-02-27T09:58:15.969Z,16.40
2024-02-27T10:00:43.249Z,12.60
2024-02-27T10:03:10.919Z,13.00
2024-02-27T10:05:39.208Z,11.00
2024-02-27T10:08:06.635Z,11.60
2024-02-27T10:10:34.158Z,11.90
2024-02-27T10:13:01.194Z,10.80
2024-02-27T10:15:28.245Z,10.60
2024-02-27T10:17:56.471Z,10.30
2024-02-27T10:20:28.475Z,11.40
2024-02-27T10:22:56.651Z,11.50
2024-02-27T10:25:25.655Z,11.80
2024-02-27T10:27:52.713Z,9.70
2024-02-27T10:30:20.405Z,10.20
2024-02-27T10:32:47.552Z,9.10
2024-02-27T10:35:18.117Z,8.50
2024-02-27T10:37:46.307Z,9.10
2024-02-27T10:40:13.858Z,8.10
2024-02-27T10:42:41.889Z,7.40
2024-02-27T10:45:10.344Z,8.40
2024-02-27T10:47:37.670Z,9.10
2024-02-27T10:50:07.863Z,9.00
2024-02-27T10:52:38.456Z,9.80
2024-02-27T10:55:06.146Z,8.30
2024-02-27T10:57:34.238Z,7.80
2024-02-27T11:00:01.577Z,8.00
2024-02-27T11:02:30.112Z,8.40
2024-02-27T11:04:59.848Z,8.10
2024-02-27T11:07:27.161Z,9.20
2024-02-27T11:09:55.654Z,8.60
2024-02-27T11:12:23.120Z,8.30
2024-02-27T11:14:50.889Z,8.10
2024-02-27T11:17:21.974Z,8.30
2024-02-27T11:19:53.163Z,9.60
2024-02-27T11:22:24.125Z,8.70
2024-02-27T11:24:59.657Z,10.90
2024-02-27T11:27:38.896Z,9.40
2024-02-27T11:30:07.335Z,9.90
2024-02-27T11:32:38.929Z,12.10
2024-02-27T11:35:08.120Z,10.20
2024-02-27T11:37:35.533Z,8.20
2024-02-27T11:40:05.914Z,7.90
2024-02-27T11:42:44.222Z,8.00
2024-02-27T11:45:12.493Z,9.00
2024-02-27T11:47:42.942Z,8.20
2024-02-27T11:50:10.426Z,9.80
2024-02-27T11:52:37.524Z,10.10
2024-02-27T11:55:10.634Z,10.00
2024-02-27T11:57:38.652Z,9.60
2024-02-27T12:00:17.942Z,9.00
2024-02-27T12:02:46.461Z,9.40
2024-02-27T12:05:14.453Z,11.40
2024-02-27T12:07:41.679Z,8.50
2024-02-27T12:10:12.898Z,10.50
2024-02-27T12:12:41.269Z,11.70
2024-02-27T12:15:09.770Z,9.80
2024-02-27T12:17:39.793Z,9.90
2024-02-27T12:20:07.733Z,10.00
2024-02-27T12:22:38.497Z,10.40
2024-02-27T12:25:05.971Z,10.20
2024-02-27T12:27:33.567Z,9.50
2024-02-27T12:30:01.773Z,10.00
2024-02-27T12:32:29.336Z,9.40
2024-02-27T12:34:56.495Z,12.10
2024-02-27T12:37:23.614Z,10.90
2024-02-27T12:39:50.960Z,11.10
2024-02-27T12:42:18.137Z,12.80
2024-02-27T12:44:51.475Z,13.60
2024-02-27T12:47:18.660Z,13.60
2024-02-27T12:52:50.017Z,12.90
2024-02-27T12:55:22.772Z,10.00
2024-02-27T12:57:53.855Z,12.00
2024-02-27T13:00:22.530Z,10.90
2024-02-27T13:02:55.508Z,10.40
2024-02-27T13:05:25.866Z,12.40
2024-02-27T13:07:53.609Z,12.10
2024-02-27T13:10:21.042Z,10.40
2024-02-27T13:12:48.537Z,12.30
2024-02-27T13:15:16.015Z,12.30
2024-02-27T13:17:43.236Z,18.40
2024-02-27T13:20:10.730Z,15.90
2024-02-27T13:22:37.928Z,15.10
2024-02-27T13:25:05.263Z,17.90
2024-02-27T13:27:32.446Z,17.80
2024-02-27T13:29:59.603Z,12.80
2024-02-27T13:32:26.816Z,28.80
2024-02-27T13:34:54.129Z,15.20
2024-02-27T13:37:21.269Z,11.60
2024-02-27T13:39:48.350Z,10.60
2024-02-27T13:42:15.480Z,11.00
2024-02-27T13:44:42.681Z,10.50
2024-02-27T13:47:10.531Z,10.10
2024-02-27T13:49:38.369Z,9.20
2024-02-27T13:52:05.503Z,12.60
2024-02-27T13:54:33.059Z,18.10
2024-02-27T13:57:00.172Z,15.90
2024-02-27T13:59:27.467Z,12.30
2024-02-27T14:01:54.627Z,12.10
2024-02-27T14:04:25.452Z,13.10
2024-02-27T14:06:54.269Z,10.50
2024-02-27T14:09:21.484Z,10.60
2024-02-27T14:11:48.579Z,13.70
2024-02-27T14:14:21.216Z,14.80
2024-02-27T14:16:48.961Z,16.20
2024-02-27T14:19:17.742Z,12.40
2024-02-27T14:21:45.143Z,14.00
2024-02-27T14:24:12.465Z,16.60
2024-02-27T14:26:39.546Z,13.70
2024-02-27T14:29:06.655Z,12.60
2024-02-27T14:31:34.209Z,20.60
2024-02-27T14:34:01.379Z,58.30
2024-02-27T14:36:28.716Z,18.10
2024-02-27T14:38:55.792Z,58.20
2024-02-27T14:41:22.786Z,27.70
2024-02-27T14:43:49.759Z,20.50
2024-02-27T14:46:17.221Z,11.30
2024-02-27T14:48:44.574Z,10.70
2024-02-27T14:51:11.787Z,9.30
2024-02-27T14:53:39.291Z,9.80
2024-02-27T14:56:06.539Z,9.20
2024-02-27T14:58:33.691Z,27.30
2024-02-27T15:01:02.777Z,57.50
2024-02-27T15:03:31.138Z,50.50
2024-02-27T15:05:58.241Z,22.90
2024-02-27T15:08:25.368Z,22.50
2024-02-27T15:10:52.417Z,22.20
2024-02-27T15:13:19.493Z,18.50
2024-02-27T15:15:46.779Z,19.00
2024-02-27T15:18:14.164Z,14.60
2024-02-27T15:20:41.673Z,17.80
2024-02-27T15:23:08.836Z,11.70
2024-02-27T15:25:35.889Z,14.10
2024-02-27T15:28:02.883Z,13.60
2024-02-27T15:30:29.951Z,14.70
2024-02-27T15:32:57.048Z,13.80
2024-02-27T15:35:24.666Z,16.60
2024-02-27T15:37:51.938Z,13.50
2024-02-27T15:40:19.046Z,16.20
2024-02-27T15:42:46.134Z,15.60
2024-02-27T15:45:13.320Z,18.10
2024-02-27T15:47:40.730Z,24.70
2024-02-27T15:50:07.900Z,18.20
2024-02-27T15:52:35.003Z,16.80
2024-02-27T15:55:02.136Z,18.50
2024-02-27T15:57:29.269Z,14.70
2024-02-27T15:59:56.397Z,13.30
2024-02-27T16:02:24.641Z,14.70
2024-02-27T16:04:54.907Z,14.30
2024-02-27T16:07:31.597Z,18.20
2024-02-27T16:09:58.982Z,14.10
2024-02-27T16:12:30.530Z,14.40
2024-02-27T16:15:03.961Z,10.70
2024-02-27T16:17:31.108Z,12.10
2024-02-27T16:19:58.400Z,11.00
2024-02-27T16:22:25.663Z,9.90
2024-02-27T16:24:52.803Z,10.50
2024-02-27T16:27:19.918Z,10.40
2024-02-27T16:29:47.092Z,10.50
2024-02-27T16:32:14.190Z,10.90
2024-02-27T16:34:41.450Z,12.80
2024-02-27T16:37:08.674Z,15.10
2024-02-27T16:39:35.909Z,15.90
2024-02-27T16:42:03.041Z,19.70
2024-02-27T16:44:30.113Z,29.90
2024-02-27T16:46:57.100Z,27.90
2024-02-27T16:49:24.263Z,32.80
2024-02-27T16:51:51.420Z,24.20
2024-02-27T16:54:18.467Z,27.50
2024-02-27T16:56:45.544Z,22.20
2024-02-27T16:59:13.261Z,19.90
2024-02-27T17:01:40.360Z,17.30
2024-02-27T17:04:07.680Z,18.00
2024-02-27T17:06:34.945Z,20.50
2024-02-27T17:09:02.487Z,19.70
2024-02-27T17:11:29.557Z,22.10
2024-02-27T17:13:56.646Z,21.70
2024-02-27T17:16:23.885Z,22.10
2024-02-27T17:18:51.095Z,18.70
2024-02-27T17:21:18.265Z,19.60
2024-02-27T17:23:46.625Z,21.70
2024-02-27T17:26:13.700Z,24.40
2024-02-27T17:28:41.060Z,26.60
2024-02-27T17:31:08.774Z,29.10
2024-02-27T17:33:36.098Z,27.70
2024-02-27T17:36:04.369Z,25.40
2024-02-27T17:38:31.411Z,23.20
2024-02-27T17:40:59.593Z,22.40
2024-02-27T17:43:26.985Z,21.10
2024-02-27T17:45:54.134Z,17.40
2024-02-27T17:48:22.205Z,21.20
2024-02-27T17:50:49.401Z,22.70
2024-02-27T17:53:16.411Z,23.70
2024-02-27T17:55:43.597Z,21.30
2024-02-27T17:58:10.677Z,19.80
2024-02-27T18:00:38.463Z,18.90
2024-02-27T18:03:06.032Z,18.30
2024-02-27T18:05:33.226Z,18.80
2024-02-27T18:08:00.244Z,17.90
2024-02-27T18:10:27.803Z,18.40
2024-02-27T18:12:55.011Z,19.50
2024-02-27T18:15:22.182Z,21.30
2024-02-27T18:17:49.332Z,20.20
2024-02-27T18:20:17.026Z,19.60
2024-02-27T18:22:45.481Z,21.80
2024-02-27T18:25:13.381Z,22.60
2024-02-27T18:27:41.366Z,22.90
2024-02-27T18:30:09.521Z,21.90
2024-02-27T18:32:38.482Z,20.40
2024-02-27T18:35:05.972Z,20.00
2024-02-27T18:37:33.113Z,19.20
2024-02-27T18:40:01.118Z,20.20
2024-02-27T18:42:28.453Z,19.60
2024-02-27T18:44:55.493Z,19.30
2024-02-27T18:47:22.556Z,19.60
2024-02-27T18:49:49.893Z,19.10
2024-02-27T18:52:21.010Z,21.10
2024-02-27T18:54:48.943Z,20.70
2024-02-27T18:57:16.246Z,21.50
2024-02-27T18:59:43.376Z,21.60
2024-02-27T19:02:10.654Z,22.70
2024-02-27T19:04:37.860Z,22.10
2024-02-27T19:07:05.569Z,20.90
2024-02-27T19:09:32.823Z,19.30
2024-02-27T19:12:00.139Z,18.70
2024-02-27T19:14:27.379Z,18.30
2024-02-27T19:16:56.834Z,17.00
2024-02-27T19:19:24.099Z,16.60
2024-02-27T19:21:51.207Z,14.80
2024-02-27T19:24:18.329Z,14.20
2024-02-27T19:26:45.438Z,14.50
2024-02-27T19:29:12.489Z,14.50
2024-02-27T19:31:39.614Z,14.60
2024-02-27T19:34:06.720Z,13.40
2024-02-27T19:36:34.444Z,14.90
2024-02-27T19:39:01.823Z,14.30
2024-02-27T19:41:28.900Z,14.00
2024-02-27T19:43:55.951Z,14.70
2024-02-27T19:46:22.988Z,14.50
2024-02-27T19:48:50.250Z,15.10
2024-02-27T19:51:17.569Z,15.30
2024-02-27T19:53:44.656Z,14.40
2024-02-27T19:56:11.815Z,15.10
2024-02-27T19:58:38.865Z,14.00
2024-02-27T20:01:06.031Z,13.20
2024-02-27T20:03:33.324Z,12.50
2024-02-27T20:06:00.576Z,11.40
2024-02-27T20:08:27.671Z,12.70
2024-02-27T20:10:54.714Z,12.80
2024-02-27T20:13:22.423Z,13.20
2024-02-27T20:15:49.863Z,12.70
2024-02-27T20:18:18.083Z,13.20
2024-02-27T20:20:45.276Z,13.10
2024-02-27T20:23:12.533Z,11.50
2024-02-27T20:25:40.470Z,13.20
2024-02-27T20:28:07.531Z,12.30
2024-02-27T20:30:34.684Z,15.00
2024-02-27T20:33:01.839Z,14.30
2024-02-27T20:35:29.240Z,16.20
2024-02-27T20:37:56.365Z,15.10
2024-02-27T20:40:24.091Z,15.50
2024-02-27T20:42:51.288Z,15.30
2024-02-27T20:45:18.387Z,14.20
2024-02-27T20:47:45.511Z,14.00
2024-02-27T20:50:12.547Z,13.90
2024-02-27T20:52:39.567Z,12.80
2024-02-27T20:55:08.092Z,19.80
2024-02-27T20:57:35.346Z,19.30
2024-02-27T21:00:02.945Z,18.10
2024-02-27T21:02:32.735Z,18.20
2024-02-27T21:05:00.368Z,15.70
2024-02-27T21:07:27.431Z,13.10
2024-02-27T21:09:54.592Z,12.70
2024-02-27T21:12:21.778Z,12.20
2024-02-27T21:14:49.642Z,12.20
2024-02-27T21:17:16.776Z,11.80
2024-02-27T21:19:44.716Z,12.10
2024-02-27T21:22:11.770Z,12.60
2024-02-27T21:24:38.792Z,11.90
2024-02-27T21:27:05.906Z,13.10
2024-02-27T21:29:32.955Z,13.10
2024-02-27T21:32:00.011Z,12.30
2024-02-27T21:34:27.024Z,11.90
2024-02-27T21:36:55.111Z,12.20
2024-02-27T21:39:22.425Z,12.70
2024-02-27T21:41:51.389Z,11.40
2024-02-27T21:44:20.016Z,11.20
2024-02-27T21:46:47.243Z,12.10
2024-02-27T21:49:14.335Z,12.20
2024-02-27T21:51:46.280Z,11.00
2024-02-27T21:54:20.044Z,11.40
2024-02-27T21:56:47.346Z,11.90
2024-02-27T21:59:15.593Z,11.00
2024-02-27T22:01:48.400Z,11.80
2024-02-27T22:04:17.227Z,11.70
2024-02-27T22:06:59.191Z,10.20
2024-02-27T22:09:28.331Z,10.70
2024-02-27T22:11:55.350Z,10.90
2024-02-27T22:14:22.534Z,9.90
2024-02-27T22:16:50.796Z,10.60
2024-02-27T22:19:17.851Z,11.50
2024-02-27T22:21:47.177Z,10.10
2024-02-27T22:24:16.451Z,10.70
2024-02-27T22:26:43.667Z,11.20
2024-02-27T22:29:10.746Z,9.70
2024-02-27T22:31:38.079Z,9.70
2024-02-27T22:34:05.162Z,10.10
2024-02-27T22:36:32.354Z,10.20
2024-02-27T22:38:59.458Z,10.20
2024-02-27T22:41:26.594Z,10.40
2024-02-27T22:43:53.588Z,10.50
2024-02-27T22:46:25.796Z,10.20
2024-02-27T22:48:53.273Z,9.00
2024-02-27T22:51:20.554Z,9.50
2024-02-27T22:53:47.588Z,10.10
2024-02-27T22:56:15.050Z,9.30
2024-02-27T22:58:42.147Z,9.10
2024-02-27T23:01:09.180Z,9.80
2024-02-27T23:03:36.336Z,10.00
2024-02-27T23:06:03.475Z,9.60
2024-02-27T23:08:30.495Z,9.60
2024-02-27T23:10:58.087Z,10.00
2024-02-27T23:13:25.182Z,11.20
2024-02-27T23:15:52.231Z,9.90
2024-02-27T23:18:19.449Z,9.60
2024-02-27T23:20:47.659Z,10.40
2024-02-27T23:23:14.765Z,10.00
2024-02-27T23:25:43.481Z,10.20
2024-02-27T23:28:10.942Z,10.90
2024-02-27T23:30:38.010Z,10.50
2024-02-27T23:33:05.393Z,10.70
2024-02-27T23:35:32.519Z,10.40
2024-02-27T23:38:04.152Z,10.50
2024-02-27T23:40:32.564Z,9.80
2024-02-27T23:42:59.651Z,10.30
2024-02-27T23:45:26.827Z,9.80
2024-02-27T23:47:54.060Z,9.20
2024-02-27T23:50:21.202Z,10.00
2024-02-27T23:52:48.263Z,8.90
2024-02-27T23:55:17.730Z,9.30
2024-02-27T23:57:44.757Z,9.70
